Time;durP1;ratioP1;P1;durP2;ratioP2;P2;SDS_P1;SDS_P2;PMS_P1;PMS_P2;Temp;Humidity;BMP_temperature;BMP_pressure;BME280_temperature;BME280_humidity;BME280_pressure;Samples;Min_cycle;Max_cycle;Signal;HPM_P1;HPM_P2
2022/11/03 00:00:52;;;;;;;18.02;2.78;;;;;;;10.35;100.00;101300.88;5033141;28;20030;-83
2022/11/03 00:03:17;;;;;;;12.93;2.55;;;;;;;10.31;100.00;101302.91;5032544;28;20040;-83
2022/11/03 00:08:26;;;;;;;13.85;2.67;;;;;;;10.32;100.00;101285.97;5033883;28;20084;-82
2022/11/03 00:10:52;;;;;;;13.95;2.63;;;;;;;10.36;100.00;101290.13;5031919;28;20033;-82
2022/11/03 00:13:17;;;;;;;13.35;2.70;;;;;;;10.46;100.00;101270.72;5033608;28;20116;-82
2022/11/03 00:15:49;;;;;;;11.55;2.63;;;;;;;10.46;100.00;101292.84;5032363;28;20025;-81
2022/11/03 00:18:14;;;;;;;;;;;;;;;10.45;100.00;101307.13;5033949;28;20037;-81
2022/11/03 00:20:39;;;;;;;9.02;2.50;;;;;;;10.41;100.00;101313.66;5033264;28;19909;-81
2022/11/03 00:23:04;;;;;;;12.07;2.60;;;;;;;10.36;100.00;101290.13;5033171;28;20029;-82
2022/11/03 00:25:30;;;;;;;15.02;2.40;;;;;;;10.38;100.00;101276.69;5033587;28;20030;-82
2022/11/03 00:27:55;;;;;;;22.02;3.13;;;;;;;10.35;100.00;101299.06;5033100;28;20124;-82
2022/11/03 00:30:21;;;;;;;20.35;2.58;;;;;;;10.34;100.00;101283.22;5033271;28;20029;-81
2022/11/03 00:32:46;;;;;;;11.32;2.83;;;;;;;10.45;100.00;101269.03;5032956;28;20112;-83
2022/11/03 00:35:12;;;;;;;18.65;2.65;;;;;;;10.41;100.00;101274.59;5033332;28;20049;-82
2022/11/03 00:37:37;;;;;;;12.68;2.40;;;;;;;10.47;100.00;101270.59;5033214;28;20459;-80
2022/11/03 00:40:02;;;;;;;14.45;2.25;;;;;;;10.47;100.00;101265.28;5032396;28;20041;-82
2022/11/03 00:42:28;;;;;;;13.75;2.60;;;;;;;10.52;100.00;101267.53;5033103;28;20041;-81
2022/11/03 00:44:53;;;;;;;17.70;2.65;;;;;;;10.53;100.00;101277.22;5031632;28;20485;-82
2022/11/03 00:47:18;;;;;;;11.15;2.28;;;;;;;10.52;100.00;101271.03;5032651;28;20366;-82
2022/11/03 00:49:44;;;;;;;15.60;3.28;;;;;;;10.50;100.00;101261.53;5033041;28;20500;-81
2022/11/03 00:52:09;;;;;;;17.60;3.22;;;;;;;10.47;100.00;101275.09;5032381;28;20037;-82
2022/11/03 00:54:34;;;;;;;13.07;2.10;;;;;;;10.48;100.00;101260.78;5032682;28;20033;-82
2022/11/03 00:57:00;;;;;;;12.90;2.65;;;;;;;10.50;100.00;101256.19;5032529;28;20109;-81
2022/11/03 00:59:25;;;;;;;16.23;3.20;;;;;;;10.53;100.00;101266.59;5032850;28;20042;-81
2022/11/03 01:01:51;;;;;;;17.38;2.65;;;;;;;10.51;100.00;101265.84;5032234;28;20041;-80
2022/11/03 01:07:01;;;;;;;15.05;2.65;;;;;;;10.51;100.00;101245.44;5032406;28;20071;-83
2022/11/03 01:09:34;;;;;;;10.73;2.35;;;;;;;10.44;100.00;101254.88;5032614;28;20029;-82
2022/11/03 01:12:13;;;;;;;20.20;2.90;;;;;;;10.42;100.00;101230.25;5032147;28;20509;-82
2022/11/03 01:14:43;;;;;;;15.18;2.88;;;;;;;10.41;100.00;101239.19;5032725;28;20042;-82
2022/11/03 01:17:23;;;;;;;15.68;2.80;;;;;;;10.41;100.00;101232.03;5032383;28;20029;-82
2022/11/03 01:19:49;;;;;;;13.15;2.70;;;;;;;10.44;100.00;101217.66;5032307;28;20037;-80
2022/11/03 01:22:15;;;;;;;19.08;2.90;;;;;;;10.41;100.00;101216.06;5032217;28;20319;-82
2022/11/03 01:24:41;;;;;;;17.20;2.63;;;;;;;10.39;100.00;101219.84;5032326;28;20049;-82
2022/11/03 01:27:13;;;;;;;15.48;2.97;;;;;;;10.34;100.00;101219.38;5032120;28;20045;-82
2022/11/03 01:29:39;;;;;;;11.10;2.90;;;;;;;10.29;100.00;101224.22;5032414;28;20125;-82
2022/11/03 01:32:04;;;;;;;12.25;3.55;;;;;;;10.30;100.00;101212.59;5047436;28;20072;-82
2022/11/03 01:34:30;;;;;;;18.85;2.97;;;;;;;10.37;100.00;101211.16;5032056;28;20056;-81
2022/11/03 01:36:56;;;;;;;16.23;2.88;;;;;;;10.45;100.00;101208.69;5032209;28;20036;-82
2022/11/03 01:39:21;;;;;;;13.80;3.83;;;;;;;10.46;100.00;101214.84;5032488;28;20034;-82
2022/11/03 01:41:49;;;;;;;14.30;2.63;;;;;;;10.42;100.00;101208.97;5032393;28;20038;-82
2022/11/03 01:44:14;;;;;;;10.80;2.53;;;;;;;10.41;100.00;101208.09;5032175;28;20037;-82
2022/11/03 01:46:48;;;;;;;18.05;2.70;;;;;;;10.39;100.00;101204.72;5032588;28;20037;-81
2022/11/03 01:49:18;;;;;;;10.98;2.33;;;;;;;10.44;100.00;101196.38;5032449;28;20367;-80
2022/11/03 01:51:49;;;;;;;11.60;3.30;;;;;;;10.44;100.00;101196.38;5032537;28;20034;-80
2022/11/03 01:54:18;;;;;;;13.43;2.83;;;;;;;10.38;100.00;101197.72;5032355;28;20033;-83
2022/11/03 01:56:45;;;;;;;15.65;3.30;;;;;;;10.37;100.00;101197.84;5032618;28;20183;-80
2022/11/03 01:59:12;;;;;;;19.63;3.10;;;;;;;10.37;100.00;101185.38;5032317;28;20029;-79
2022/11/03 02:01:37;;;;;;;13.15;2.70;;;;;;;10.37;100.00;101181.88;5031321;28;20527;-82
2022/11/03 02:04:09;;;;;;;18.25;2.85;;;;;;;10.37;100.00;101182.72;5050289;28;20033;-81
2022/11/03 02:06:36;;;;;;;16.63;2.80;;;;;;;10.38;100.00;101171.13;5036164;28;20029;-82
2022/11/03 02:09:04;;;;;;;8.55;2.45;;;;;;;10.44;100.00;101163.59;5035813;28;20060;-81
2022/11/03 02:14:15;;;;;;;16.98;2.78;;;;;;;10.50;100.00;101152.44;5035535;28;20048;-82
2022/11/03 02:16:46;;;;;;;9.18;2.45;;;;;;;10.45;100.00;101155.50;5036029;28;20037;-82
2022/11/03 02:19:46;;;;;;;20.58;3.00;;;;;;;10.47;100.00;101158.03;5035346;28;20039;-82
2022/11/03 02:22:36;;;;;;;10.80;2.60;;;;;;;10.43;100.00;101151.28;5035561;28;20033;-81
2022/11/03 02:25:04;;;;;;;12.52;2.63;;;;;;;10.40;100.00;101142.59;5034251;28;20033;-82
2022/11/03 02:27:30;;;;;;;13.38;2.60;;;;;;;10.36;100.00;101138.50;5035637;28;20033;-83
2022/11/03 02:29:57;;;;;;;16.20;2.72;;;;;;;10.38;100.00;101144.53;5035584;28;20480;-82
2022/11/03 02:32:28;;;;;;;9.82;2.33;;;;;;;10.36;100.00;101133.19;5050472;28;20048;-82
2022/11/03 02:35:00;;;;;;;16.67;2.92;;;;;;;10.44;100.00;101139.66;5035605;28;20128;-82
2022/11/03 02:37:30;;;;;;;12.60;2.78;;;;;;;10.47;100.00;101134.91;5035473;28;20029;-83
2022/11/03 02:40:01;;;;;;;10.57;2.33;;;;;;;10.47;100.00;101137.56;5034432;28;20039;-83
2022/11/03 02:42:28;;;;;;;10.38;2.53;;;;;;;10.45;100.00;101117.38;5035537;28;20110;-80
2022/11/03 02:44:59;;;;;;;13.90;2.63;;;;;;;10.45;100.00;101114.72;5035465;28;20025;-82
2022/11/03 02:47:26;;;;;;;12.82;2.50;;;;;;;10.40;100.00;101110.66;5034812;28;20041;-82
2022/11/03 02:49:53;;;;;;;11.93;2.72;;;;;;;10.35;100.00;101106.72;5035075;28;20389;-82
2022/11/03 02:52:43;;;;;;;9.40;2.53;;;;;;;10.36;100.00;101101.25;5034698;28;20037;-81
2022/11/03 02:55:37;;;;;;;12.25;2.72;;;;;;;10.41;100.00;101095.53;5034465;28;20501;-81
2022/11/03 02:58:10;;;;;;;12.95;2.35;;;;;;;10.41;100.00;101079.59;5034996;28;20079;-82
2022/11/03 03:01:00;;;;;;;11.75;2.20;;;;;;;10.41;100.00;101083.06;5035384;28;20026;-81
2022/11/03 03:03:32;;;;;;;13.63;2.83;;;;;;;10.42;100.00;101070.63;5033947;28;20129;-82
2022/11/03 03:06:23;;;;;;;8.95;2.40;;;;;;;10.41;100.00;101085.72;5034748;28;20466;-82
2022/11/03 03:08:59;;;;;;;20.25;3.00;;;;;;;10.42;100.00;101078.63;5033904;28;20033;-82
2022/11/03 03:11:36;;;;;;;13.70;2.70;;;;;;;10.36;100.00;101085.31;5034237;28;20492;-82
2022/11/03 03:14:03;;;;;;;8.98;2.08;;;;;;;10.32;100.00;101067.06;5034595;28;20120;-82
2022/11/03 03:16:34;;;;;;;13.68;2.42;;;;;;;10.29;100.00;101062.00;5034020;28;20490;-82
2022/11/03 03:19:31;;;;;;;11.80;2.60;;;;;;;10.30;100.00;101064.53;5034803;28;20033;-82
2022/11/03 03:22:02;;;;;;;9.95;2.58;;;;;;;10.23;100.00;101066.84;5033734;28;20144;-82
2022/11/03 03:24:52;;;;;;;14.75;2.88;;;;;;;10.24;100.00;101070.38;5033915;28;20053;-82
2022/11/03 03:27:19;;;;;;;10.65;2.65;;;;;;;10.26;100.00;101073.72;5032731;28;20036;-82
2022/11/03 03:29:50;;;;;;;9.80;2.47;;;;;;;10.26;100.00;101062.25;5049746;28;20461;-82
2022/11/03 03:32:20;;;;;;;13.75;2.47;;;;;;;10.34;100.00;101065.94;5034023;28;20052;-81
2022/11/03 03:34:49;;;;;;;15.13;2.92;;;;;;;10.35;100.00;101041.06;5034226;28;20056;-81
2022/11/03 03:37:16;;;;;;;13.30;2.42;;;;;;;10.41;100.00;101039.69;5033807;28;20032;-82
2022/11/03 03:39:47;;;;;;;9.40;2.42;;;;;;;10.44;100.00;101042.06;5031311;28;20188;-81
2022/11/03 03:42:15;;;;;;;11.35;2.25;;;;;;;10.46;100.00;101039.28;5031138;28;20029;-81
2022/11/03 03:44:42;;;;;;;10.63;2.60;;;;;;;10.51;100.00;101045.03;5031047;28;20415;-82
2022/11/03 03:47:31;;;;;;;15.18;4.10;;;;;;;10.60;100.00;101041.59;5030937;28;20390;-82
2022/11/03 03:49:57;;;;;;;14.68;2.38;;;;;;;10.65;100.00;101026.06;5030493;28;20125;-82
2022/11/03 03:52:24;;;;;;;10.95;2.35;;;;;;;10.72;100.00;101037.00;5031051;28;20171;-83
2022/11/03 03:54:50;;;;;;;11.85;2.88;;;;;;;10.77;100.00;101040.94;5030955;28;20493;-81
2022/11/03 03:57:22;;;;;;;15.40;2.47;;;;;;;10.74;100.00;101027.06;5031325;28;20075;-83
2022/11/03 03:59:47;;;;;;;11.57;2.50;;;;;;;10.75;100.00;101031.41;5030036;28;20033;-82
2022/11/03 04:02:13;;;;;;;18.15;3.08;;;;;;;10.78;100.00;101023.16;5031133;28;20033;-82
2022/11/03 04:04:38;;;;;;;15.50;3.50;;;;;;;10.74;100.00;101027.88;5030908;28;20041;-83
2022/11/03 04:09:49;;;;;;;15.15;2.72;;;;;;;10.69;100.00;101018.63;5043277;28;20049;-81
2022/11/03 04:23:13;;;;;;;12.75;2.50;;;;;;;10.51;100.00;101015.75;5030673;28;20049;-82
2022/11/03 04:25:38;;;;;;;14.15;2.53;;;;;;;10.47;100.00;101017.03;5029919;28;20041;-82
2022/11/03 04:28:12;;;;;;;11.60;2.88;;;;;;;10.47;100.00;101011.72;5029052;28;20025;-82
2022/11/03 04:30:38;;;;;;;11.30;2.50;;;;;;;10.47;100.00;101001.06;5030463;28;20036;-82
2022/11/03 04:33:12;;;;;;;15.40;2.60;;;;;;;10.45;100.00;101000.34;5030518;28;20037;-82
2022/11/03 04:35:38;;;;;;;10.85;2.47;;;;;;;10.45;100.00;100997.69;5030771;28;20073;-82
2022/11/03 04:38:18;;;;;;;8.50;2.55;;;;;;;10.44;100.00;100996.03;5030459;28;20366;-84
2022/11/03 04:40:46;;;;;;;12.73;2.00;;;;;;;10.44;100.00;100993.38;5030390;28;20128;-82
2022/11/03 04:43:17;;;;;;;13.18;2.90;;;;;;;10.39;100.00;100997.25;5030274;28;20156;-81
2022/11/03 04:45:46;;;;;;;;;;;;;;;10.37;100.00;100979.75;5030951;28;20029;-83
2022/11/03 04:48:13;;;;;;;11.88;2.55;;;;;;;10.36;100.00;100986.03;5030038;28;19986;-83
2022/11/03 04:50:39;;;;;;;11.43;2.33;;;;;;;10.33;100.00;100978.28;5028411;28;20037;-82
2022/11/03 04:53:12;;;;;;;8.57;2.15;;;;;;;10.32;100.00;100979.28;5029921;28;20021;-82
2022/11/03 04:55:39;;;;;;;11.73;2.35;;;;;;;10.34;100.00;100966.72;5029675;28;20480;-82
2022/11/03 04:58:42;;;;;;;11.23;2.97;;;;;;;10.37;100.00;100964.63;5029266;28;20033;-82
2022/11/03 05:01:13;;;;;;;9.27;2.38;;;;;;;10.41;100.00;100959.88;5030188;28;20120;-80
2022/11/03 05:03:39;;;;;;;10.23;2.20;;;;;;;10.50;100.00;100951.09;5028083;28;20045;-81
2022/11/03 05:06:11;;;;;;;11.05;1.83;;;;;;;10.54;100.00;100949.84;5029406;28;20033;-82
2022/11/03 05:08:37;;;;;;;13.85;2.90;;;;;;;10.56;100.00;100950.53;5030142;28;20147;-83
2022/11/03 05:11:14;;;;;;;7.72;2.28;;;;;;;10.56;100.00;100942.56;5029788;28;20137;-85
2022/11/03 05:13:39;;;;;;;11.27;2.63;;;;;;;10.62;100.00;100937.69;5029734;28;20182;-83
2022/11/03 05:16:05;;;;;;;9.13;1.83;;;;;;;10.61;100.00;100936.81;5029768;28;20510;-84
2022/11/03 05:18:35;;;;;;;11.32;2.67;;;;;;;10.58;100.00;100923.78;5029505;28;20401;-83
2022/11/03 05:21:14;;;;;;;10.50;2.13;;;;;;;10.58;100.00;100914.00;5029623;28;20033;-85
2022/11/03 05:23:50;;;;;;;10.68;2.42;;;;;;;10.56;100.00;100915.94;5029455;28;20076;-84
2022/11/03 05:26:24;;;;;;;13.85;2.55;;;;;;;10.56;100.00;100912.47;5027727;28;20063;-81
2022/11/03 05:28:54;;;;;;;8.88;2.50;;;;;;;10.58;100.00;100910.50;5029441;28;20148;-83
2022/11/03 05:31:30;;;;;;;6.40;1.98;;;;;;;10.58;100.00;100906.03;5029118;28;20123;-82
2022/11/03 05:33:58;;;;;;;13.27;2.72;;;;;;;10.59;100.00;100906.84;5029055;28;20029;-84
2022/11/03 05:36:27;;;;;;;7.43;2.00;;;;;;;10.61;100.00;100904.06;5027314;28;20050;-84
2022/11/03 05:39:12;;;;;;;7.88;2.28;;;;;;;10.61;100.00;100893.41;5030812;28;20076;-82
2022/11/03 05:41:37;;;;;;;12.48;2.10;;;;;;;10.61;100.00;100898.75;5032123;28;20040;-84
2022/11/03 05:44:15;;;;;;;8.05;2.42;;;;;;;10.68;100.00;100894.56;5033044;28;20041;-82
2022/11/03 05:46:40;;;;;;;9.32;2.40;;;;;;;10.65;100.00;100889.50;5032204;28;20041;-83
2022/11/03 05:49:06;;;;;;;7.20;2.78;;;;;;;10.67;100.00;100895.53;5032912;28;20086;-83
2022/11/03 05:51:36;;;;;;;13.32;2.80;;;;;;;10.68;100.00;100890.06;5033342;28;20037;-84
2022/11/03 05:54:06;;;;;;;9.70;2.10;;;;;;;10.63;100.00;100889.66;5033077;28;20438;-82
2022/11/03 05:56:34;;;;;;;6.95;2.20;;;;;;;10.62;100.00;100889.78;5033074;28;20174;-83
2022/11/03 05:59:00;;;;;;;10.20;2.13;;;;;;;10.66;100.00;100888.50;5032964;28;20136;-82
2022/11/03 06:01:38;;;;;;;7.93;2.30;;;;;;;10.64;100.00;100893.97;5032901;28;20052;-81
2022/11/03 06:04:13;;;;;;;10.60;3.22;;;;;;;10.67;100.00;100883.03;5033615;28;20048;-83
2022/11/03 06:06:38;;;;;;;15.00;2.40;;;;;;;10.68;100.00;100882.06;5033580;28;20044;-84
2022/11/03 06:09:15;;;;;;;13.73;2.60;;;;;;;10.67;100.00;100874.22;5033548;28;20034;-85
2022/11/03 06:11:42;;;;;;;6.60;1.83;;;;;;;10.70;100.00;100874.81;5033583;28;20055;-85
2022/11/03 06:14:22;;;;;;;8.98;1.98;;;;;;;10.73;100.00;100866.56;5033207;28;20154;-84
2022/11/03 06:16:55;;;;;;;11.75;2.20;;;;;;;10.75;100.00;100874.41;5033781;28;20029;-82
2022/11/03 06:19:34;;;;;;;14.13;2.70;;;;;;;10.73;100.00;100868.34;5033247;28;20108;-82
2022/11/03 06:22:13;;;;;;;8.82;2.38;;;;;;;10.72;100.00;100859.53;5033338;28;20037;-83
2022/11/03 06:24:38;;;;;;;9.50;2.28;;;;;;;10.74;100.00;100851.41;5034122;28;20373;-83
2022/11/03 06:27:03;;;;;;;10.20;2.20;;;;;;;10.76;100.00;100860.94;5031729;28;20094;-83
2022/11/03 06:29:32;;;;;;;8.02;2.50;;;;;;;10.78;100.00;100858.16;5033309;28;20060;-81
2022/11/03 06:31:58;;;;;;;9.00;2.17;;;;;;;10.83;100.00;100855.06;5033248;28;20124;-79
2022/11/03 06:34:32;;;;;;;8.93;2.08;;;;;;;10.81;100.00;100852.53;5033457;28;20375;-82
2022/11/03 06:37:09;;;;;;;10.52;3.22;;;;;;;10.83;100.00;100850.56;5033055;28;20496;-84
2022/11/03 06:39:34;;;;;;;11.48;2.38;;;;;;;10.82;100.00;100840.88;5033508;28;20033;-83
2022/11/03 06:42:10;;;;;;;5.63;2.20;;;;;;;10.82;100.00;100848.88;5032640;28;20041;-80
2022/11/03 06:44:39;;;;;;;7.65;2.20;;;;;;;10.83;100.00;100847.06;5033184;28;20116;-78
2022/11/03 06:47:20;;;;;;;6.88;2.13;;;;;;;10.82;100.00;100846.22;5032853;28;20063;-81
2022/11/03 06:49:46;;;;;;;8.35;2.38;;;;;;;10.85;100.00;100839.78;5032141;28;20084;-80
2022/11/03 06:52:25;;;;;;;7.55;1.95;;;;;;;10.87;100.00;100838.66;5033007;28;20113;-79
2022/11/03 06:55:08;;;;;;;6.55;2.30;;;;;;;10.90;100.00;100827.72;5034170;28;20108;-81
2022/11/03 06:57:38;;;;;;;9.85;2.30;;;;;;;10.94;100.00;100834.47;5032838;28;20026;-79
2022/11/03 07:00:21;;;;;;;20.05;2.47;;;;;;;10.97;100.00;100837.81;5032745;28;20036;-81
2022/11/03 07:02:59;;;;;;;12.77;2.75;;;;;;;10.94;100.00;100831.81;5048281;28;20033;-84
2022/11/03 07:05:27;;;;;;;9.15;2.50;;;;;;;10.88;100.00;100827.03;5034854;28;20477;-81
2022/11/03 07:07:57;;;;;;;9.68;2.47;;;;;;;10.86;100.00;100826.31;5037879;28;20036;-81
2022/11/03 07:10:25;;;;;;;6.22;2.10;;;;;;;10.84;100.00;100832.75;5038826;28;20033;-83
2022/11/03 07:12:51;;;;;;;9.98;2.55;;;;;;;10.86;100.00;100825.50;5036491;28;20040;-81
2022/11/03 07:15:24;;;;;;;11.70;2.42;;;;;;;10.85;100.00;100823.81;5035824;28;20029;-80
2022/11/03 07:17:50;;;;;;;9.65;2.15;;;;;;;10.84;100.00;100822.97;5033987;28;20029;-81
2022/11/03 07:20:16;;;;;;;12.35;2.60;;;;;;;10.85;100.00;100827.34;5032919;28;20115;-83
2022/11/03 07:22:43;;;;;;;12.07;2.53;;;;;;;10.87;100.00;100814.72;5032911;28;20038;-82
2022/11/03 07:25:18;;;;;;;11.05;2.63;;;;;;;10.87;100.00;100809.38;5032171;28;20056;-80
2022/11/03 07:27:46;;;;;;;8.35;2.10;;;;;;;10.88;100.00;100827.03;5032885;28;20030;-80
2022/11/03 07:30:18;;;;;;;9.60;2.85;;;;;;;10.87;100.00;100832.50;5032461;28;20048;-83
2022/11/03 07:32:44;;;;;;;7.50;2.60;;;;;;;10.88;100.00;100829.72;5031702;28;20029;-83
2022/11/03 07:35:16;;;;;;;9.95;2.15;;;;;;;10.88;100.00;100821.72;5030681;28;20129;-83
2022/11/03 07:37:42;;;;;;;;;;;;;;;10.89;100.00;100822.56;5032372;28;20049;-82
2022/11/03 07:40:17;;;;;;;9.00;2.33;;;;;;;10.89;100.00;100819.88;5031856;28;19964;-81
2022/11/03 07:42:43;;;;;;;20.95;9.02;;;;;;;10.89;100.00;100815.41;5031398;28;20025;-81
2022/11/03 07:45:38;;;;;;;11.32;3.03;;;;;;;10.92;100.00;100823.09;5031917;28;20039;-82
2022/11/03 07:48:16;;;;;;;9.18;2.58;;;;;;;10.94;100.00;100809.63;5032446;28;20065;-82
2022/11/03 07:50:41;;;;;;;8.90;2.13;;;;;;;10.93;100.00;100806.16;5031363;28;20112;-83
2022/11/03 07:53:35;;;;;;;10.65;3.13;;;;;;;10.94;100.00;100797.19;5031741;28;20108;-81
2022/11/03 07:56:12;;;;;;;11.82;2.70;;;;;;;10.94;100.00;100794.53;5047149;28;20112;-81
2022/11/03 07:58:40;;;;;;;11.23;2.30;;;;;;;10.98;100.00;100794.25;5029915;28;20033;-82
2022/11/03 08:01:23;;;;;;;8.63;2.38;;;;;;;11.00;100.00;100794.94;5031142;28;20025;-80
2022/11/03 08:03:49;;;;;;;14.95;2.60;;;;;;;11.02;100.00;100785.00;5031608;28;20034;-79
2022/11/03 08:06:15;;;;;;;9.90;2.35;;;;;;;11.07;100.00;100775.56;5030093;28;20042;-79
2022/11/03 08:08:40;;;;;;;7.93;2.38;;;;;;;11.07;100.00;100775.56;5031652;28;20113;-79
2022/11/03 08:11:06;;;;;;;8.20;2.33;;;;;;;11.08;100.00;100761.28;5030054;28;20037;-79
2022/11/03 08:13:31;;;;;;;12.65;2.47;;;;;;;11.08;100.00;100752.47;5031717;28;20480;-79
2022/11/03 08:15:58;;;;;;;9.05;2.47;;;;;;;11.06;100.00;100738.44;5031218;28;20030;-81
2022/11/03 08:18:23;;;;;;;9.07;2.13;;;;;;;11.04;100.00;100749.22;5031620;28;20083;-81
2022/11/03 08:20:49;;;;;;;14.10;2.38;;;;;;;11.03;100.00;100738.72;5031469;28;20139;-78
2022/11/03 08:23:14;;;;;;;15.25;2.70;;;;;;;11.00;100.00;100749.66;5032349;28;20135;-83
2022/11/03 08:25:39;;;;;;;12.25;2.55;;;;;;;11.00;100.00;100729.22;5031117;28;20029;-83
2022/11/03 08:28:05;;;;;;;8.30;2.30;;;;;;;10.98;100.00;100725.84;5029552;28;20369;-83
2022/11/03 08:30:31;;;;;;;8.98;2.33;;;;;;;11.00;100.00;100715.06;5031167;28;20064;-80
2022/11/03 08:32:56;;;;;;;11.40;2.40;;;;;;;11.01;100.00;100722.06;5031350;28;20087;-82
2022/11/03 08:35:21;;;;;;;11.10;2.78;;;;;;;11.04;100.00;100711.13;5030762;28;20438;-87
2022/11/03 08:37:47;;;;;;;9.73;2.75;;;;;;;11.11;100.00;100709.56;5030758;28;20461;-80
2022/11/03 08:40:12;;;;;;;9.95;2.42;;;;;;;11.21;100.00;100705.06;5031438;28;20064;-85
2022/11/03 08:42:38;;;;;;;9.02;3.05;;;;;;;11.33;100.00;100699.50;5045644;28;20061;-83
2022/11/03 08:45:04;;;;;;;14.52;3.00;;;;;;;11.47;100.00;100689.22;5029333;28;20044;-76
2022/11/03 08:47:29;;;;;;;10.15;2.88;;;;;;;11.58;100.00;100690.00;5030553;28;20045;-78
2022/11/03 08:49:55;;;;;;;9.88;2.92;;;;;;;11.56;100.00;100690.16;5030214;28;20025;-77
2022/11/03 08:52:20;;;;;;;14.10;2.90;;;;;;;11.54;100.00;100677.94;5030620;28;20095;-78
2022/11/03 08:54:46;;;;;;;11.32;2.50;;;;;;;11.53;100.00;100676.28;5030975;28;20032;-77
2022/11/03 08:57:11;;;;;;;11.13;2.47;;;;;;;11.53;100.00;100679.78;5030453;28;20036;-79
2022/11/03 08:59:37;;;;;;;7.38;2.20;;;;;;;11.55;100.00;100672.47;5030845;28;20035;-77
2022/11/03 09:02:03;;;;;;;11.27;2.58;;;;;;;11.60;100.00;100667.53;5028753;28;20068;-76
2022/11/03 09:04:28;;;;;;;18.77;2.60;;;;;;;11.68;100.00;100657.97;5030480;28;20093;-77
2022/11/03 09:06:54;;;;;;;8.63;2.35;;;;;;;11.79;100.00;100658.59;5030225;28;20026;-78
2022/11/03 09:09:20;;;;;;;9.93;2.50;;;;;;;11.92;100.00;100657.38;5030091;28;20125;-76
2022/11/03 09:11:46;;;;;;;9.75;2.67;;;;;;;12.05;100.00;100657.03;5030083;28;20163;-77
2022/11/03 09:14:11;;;;;;;12.13;2.58;;;;;;;12.15;100.00;100650.63;5030334;28;20025;-76
2022/11/03 09:16:36;;;;;;;15.85;2.63;;;;;;;12.22;100.00;100648.16;5030119;28;20484;-77
2022/11/03 09:19:02;;;;;;;10.27;2.30;;;;;;;12.24;100.00;100640.84;5030326;28;20077;-80
2022/11/03 09:21:27;;;;;;;15.90;2.90;;;;;;;12.29;100.00;100640.38;5030021;28;20041;-78
2022/11/03 09:23:52;;;;;;;13.00;2.60;;;;;;;12.24;100.00;100634.66;5030064;28;20117;-79
2022/11/03 09:26:19;;;;;;;15.48;2.67;;;;;;;12.19;100.00;100632.47;5028499;28;20116;-76
2022/11/03 09:28:44;;;;;;;11.32;2.25;;;;;;;12.15;100.00;100625.75;5030246;28;20045;-78
2022/11/03 09:31:10;;;;;;;19.17;3.00;;;;;;;12.13;100.00;100625.09;5030073;28;20116;-78
2022/11/03 09:33:35;;;;;;;12.23;2.53;;;;;;;12.11;100.00;100619.06;5029948;28;20341;-79
2022/11/03 09:36:01;;;;;;;12.85;2.35;;;;;;;12.15;100.00;100609.75;5030262;28;20383;-79
2022/11/03 09:38:27;;;;;;;12.73;2.65;;;;;;;12.21;100.00;100614.50;5030120;28;20076;-79
2022/11/03 09:40:53;;;;;;;10.40;2.30;;;;;;;12.23;100.00;100612.50;5030351;28;20053;-79
2022/11/03 09:43:18;;;;;;;10.75;2.78;;;;;;;12.21;100.00;100595.81;5030182;28;20045;-77
2022/11/03 09:45:44;;;;;;;10.88;2.30;;;;;;;12.27;100.00;100603.19;5030491;28;20048;-78
2022/11/03 09:48:11;;;;;;;9.50;2.28;;;;;;;12.32;100.00;100590.22;5029839;28;20052;-78
2022/11/03 09:50:38;;;;;;;9.55;2.97;;;;;;;12.39;100.00;100593.09;5029822;28;20466;-76
2022/11/03 09:53:04;;;;;;;17.38;3.47;;;;;;;12.48;100.00;100583.28;5030030;28;20061;-77
2022/11/03 09:55:29;;;;;;;12.90;2.80;;;;;;;12.42;100.00;100582.13;5029935;28;20343;-76
2022/11/03 09:57:59;;;;;;;13.38;3.08;;;;;;;12.46;100.00;100582.63;5045431;28;20447;-76
2022/11/03 10:00:26;;;;;;;10.93;2.78;;;;;;;12.44;100.00;100572.13;5030291;28;20048;-77
2022/11/03 10:02:52;;;;;;;11.95;2.75;;;;;;;12.41;100.00;100571.59;5030042;28;20025;-78
2022/11/03 10:05:28;;;;;;;16.73;2.35;;;;;;;12.41;100.00;100566.25;5030482;28;20033;-78
2022/11/03 10:08:00;;;;;;;11.98;2.53;;;;;;;12.42;100.00;100554.56;5028757;28;20056;-76
2022/11/03 10:10:26;;;;;;;12.55;3.22;;;;;;;12.50;100.00;100538.63;5030252;28;20102;-75
2022/11/03 10:12:52;;;;;;;10.40;3.10;;;;;;;12.53;100.00;100543.66;5029897;28;20473;-80
2022/11/03 10:15:20;;;;;;;13.95;2.70;;;;;;;12.57;100.00;100539.66;5030184;28;20129;-77
2022/11/03 10:17:46;;;;;;;12.27;2.78;;;;;;;12.68;100.00;100542.03;5029934;28;20026;-75
2022/11/03 10:20:13;;;;;;;12.95;2.67;;;;;;;12.75;100.00;100530.72;5029725;28;20423;-78
2022/11/03 10:22:40;;;;;;;11.85;2.63;;;;;;;12.80;100.00;100531.09;5029942;28;20044;-78
2022/11/03 10:25:24;;;;;;;10.13;2.30;;;;;;;12.85;100.00;100526.94;5032643;28;20121;-76
2022/11/03 10:27:49;;;;;;;7.07;2.13;;;;;;;12.90;100.00;100520.25;5033238;28;20037;-76
2022/11/03 10:30:14;;;;;;;15.20;2.47;;;;;;;12.86;100.00;100522.44;5033183;28;20030;-78
2022/11/03 10:32:40;;;;;;;11.18;2.47;;;;;;;12.94;100.00;100511.75;5033197;28;20463;-75
2022/11/03 10:35:32;;;;;;;14.93;2.97;;;;;;;12.99;100.00;100528.16;5033032;28;20029;-76
2022/11/03 10:38:17;;;;;;;;;;;;;;;12.94;100.00;100525.09;5033968;28;20058;-77
2022/11/03 10:40:42;;;;;;;15.25;3.03;;;;;;;12.99;100.00;100517.47;5032968;28;19959;-76
2022/11/03 10:43:10;;;;;;;11.63;2.33;;;;;;;13.03;100.00;100518.81;5033188;28;20075;-77
2022/11/03 10:45:35;;;;;;;6.70;2.20;;;;;;;13.02;100.00;100513.63;5032973;28;20415;-76
2022/11/03 10:48:05;;;;;;;7.47;2.10;;;;;;;13.07;100.00;100497.13;5031295;28;20117;-77
2022/11/03 10:50:31;;;;;;;9.63;2.38;;;;;;;13.22;100.00;100487.47;5033142;28;20080;-76
2022/11/03 10:52:57;;;;;;;12.38;2.35;;;;;;;13.28;100.00;100483.28;5032450;28;20037;-76
2022/11/03 10:55:24;;;;;;;11.00;2.60;;;;;;;13.39;100.00;100474.97;5031624;28;20040;-75
2022/11/03 10:57:51;;;;;;;10.68;2.20;;;;;;;13.37;100.00;100476.97;5032665;28;20052;-75
2022/11/03 11:00:18;;;;;;;13.27;2.42;;;;;;;13.43;100.00;100486.19;5032424;28;20456;-76
2022/11/03 11:02:45;;;;;;;10.40;2.35;;;;;;;13.60;100.00;100482.50;5032825;28;20362;-76
2022/11/03 11:05:17;;;;;;;8.82;2.17;;;;;;;13.74;100.00;100481.00;5032723;28;20025;-77
2022/11/03 11:07:44;;;;;;;12.07;2.47;;;;;;;13.76;100.00;100470.94;5032477;28;20045;-78
2022/11/03 11:10:19;;;;;;;9.63;2.72;;;;;;;13.93;100.00;100463.75;5032263;28;20128;-76
2022/11/03 11:13:20;;;;;;;6.38;2.22;;;;;;;14.09;100.00;100462.88;5032876;28;20029;-76
2022/11/03 11:15:49;;;;;;;7.53;2.00;;;;;;;14.24;100.00;100463.00;5032938;28;20037;-77
2022/11/03 11:18:30;;;;;;;7.68;2.33;;;;;;;14.25;100.00;100449.44;5032674;28;20098;-76
2022/11/03 11:21:14;;;;;;;9.50;2.33;;;;;;;14.22;100.00;100447.13;5032123;28;20037;-77
2022/11/03 11:23:40;;;;;;;11.13;2.20;;;;;;;14.22;100.00;100441.75;5031977;28;20318;-76
2022/11/03 11:26:08;;;;;;;5.78;2.13;;;;;;;14.19;100.00;100434.09;5031790;28;20108;-76
2022/11/03 11:28:45;;;;;;;13.10;2.60;;;;;;;14.15;100.00;100434.59;5032388;28;20109;-76
2022/11/03 11:31:26;;;;;;;9.30;2.33;;;;;;;14.16;100.00;100422.91;5032196;28;20029;-76
2022/11/03 11:34:17;;;;;;;5.63;2.00;;;;;;;14.21;100.00;100412.50;5031991;28;20482;-76
2022/11/03 11:36:48;;;;;;;8.90;2.28;;;;;;;14.32;100.00;100409.47;5031849;28;20029;-76
2022/11/03 11:39:19;;;;;;;11.73;2.30;;;;;;;14.32;100.00;100405.97;5031778;28;20032;-75
2022/11/03 11:42:13;;;;;;;11.00;2.50;;;;;;;14.35;100.00;100393.06;5031643;28;20038;-77
2022/11/03 11:44:38;;;;;;;8.90;2.42;;;;;;;14.30;100.00;100398.06;5031675;28;20120;-77
2022/11/03 11:47:39;;;;;;;8.82;2.25;;;;;;;14.26;100.00;100378.88;5029790;28;20117;-75